CheckWX is a tool to help pilots better visualize weather data.  It is not intended as a substitute for an official pre-flight weather briefing.

09:04:43 UTC

KMSV METAR
Sullivan County International Airport
Monticello, New York, USA
Current

9 mins ago

KMSV 220856Z AUTO 31009G16KT 10SM BKN037 M01/M07 A3019 RMK AO2 SLP237 T10061067 51015 FZRANO
Observed
Feb-22 @ 08:56 UTC
Wind
  • 310° at 9 KTS
  • Gusting to KTS
Visibility
10 SM
Flight Rules
VFR
Cloud Levels
  • Broken at 3,700' AGL
Temperature
-1°C / 30°F
Dewpoint
-7°C / 19°F
Humidity
64%
Altimeter
30.19" Hg
Pressure
1023.7 hPa
Previous

54 mins ago

KMSV 220811Z AUTO 30014G20KT 10SM BKN031 M01/M06 A3018 RMK AO2 FZRANO
Observed
Feb-22 @ 08:11 UTC
Wind
  • 300° at 14 KTS
  • Gusting to KTS
Visibility
10 SM
Flight Rules
VFR
Cloud Levels
  • Broken at 3,100' AGL
Temperature
-1°C / 30°F
Dewpoint
-6°C / 21°F
Humidity
69%
Altimeter
30.18" Hg
Pressure
1022.02 hPa
Previous

1 hour ago

KMSV 220756Z AUTO 30010G18KT 10SM OVC029 00/M06 A3018 RMK AO2 SLP232 T00001056 FZRANO
Observed
Feb-22 @ 07:56 UTC
Wind
  • 300° at 10 KTS
  • Gusting to KTS
Visibility
10 SM
Flight Rules
MVFR
Cloud Levels
  • Overcast at 2,900' AGL
Temperature
C / 32°F
Dewpoint
-6°C / 21°F
Humidity
64%
Altimeter
30.18" Hg
Pressure
1023.2 hPa